sensor_id;sensor_type;location;lat;lon;timestamp;temperature;humidity
13817;DHT22;6979;52.116;5.286;2022-10-03T00:01:12;13.40;99.90
13817;DHT22;6979;52.116;5.286;2022-10-03T00:03:50;13.30;99.90
13817;DHT22;6979;52.116;5.286;2022-10-03T00:06:28;13.30;99.90
13817;DHT22;6979;52.116;5.286;2022-10-03T00:09:18;13.30;99.90
13817;DHT22;6979;52.116;5.286;2022-10-03T00:11:59;13.20;99.90
13817;DHT22;6979;52.116;5.286;2022-10-03T00:14:33;13.20;99.90
13817;DHT22;6979;52.116;5.286;2022-10-03T00:17:09;13.20;99.90
13817;DHT22;6979;52.116;5.286;2022-10-03T00:19:45;13.10;99.90
13817;DHT22;6979;52.116;5.286;2022-10-03T00:22:27;13.10;99.90
13817;DHT22;6979;52.116;5.286;2022-10-03T00:25:05;13.10;99.90
13817;DHT22;6979;52.116;5.286;2022-10-03T00:27:42;13.00;99.90
13817;DHT22;6979;52.116;5.286;2022-10-03T00:30:18;13.00;99.90
13817;DHT22;6979;52.116;5.286;2022-10-03T00:33:00;13.00;99.90
13817;DHT22;6979;52.116;5.286;2022-10-03T00:35:38;12.90;99.90
13817;DHT22;6979;52.116;5.286;2022-10-03T00:38:19;12.90;99.90
13817;DHT22;6979;52.116;5.286;2022-10-03T00:41:20;12.80;99.90
13817;DHT22;6979;52.116;5.286;2022-10-03T00:44:12;12.80;99.90
13817;DHT22;6979;52.116;5.286;2022-10-03T00:47:09;12.70;99.90
13817;DHT22;6979;52.116;5.286;2022-10-03T00:53:23;12.70;99.90
13817;DHT22;6979;52.116;5.286;2022-10-03T00:56:15;12.70;99.90
13817;DHT22;6979;52.116;5.286;2022-10-03T00:58:54;12.70;99.90
13817;DHT22;6979;52.116;5.286;2022-10-03T01:01:35;12.60;99.90
13817;DHT22;6979;52.116;5.286;2022-10-03T01:04:13;12.60;99.90
13817;DHT22;6979;52.116;5.286;2022-10-03T01:06:46;12.60;99.90
13817;DHT22;6979;52.116;5.286;2022-10-03T01:09:38;12.50;99.90
13817;DHT22;6979;52.116;5.286;2022-10-03T01:15:13;12.50;99.90
13817;DHT22;6979;52.116;5.286;2022-10-03T01:17:53;12.40;99.90
13817;DHT22;6979;52.116;5.286;2022-10-03T01:20:29;12.40;99.90
13817;DHT22;6979;52.116;5.286;2022-10-03T01:23:37;12.40;99.90
13817;DHT22;6979;52.116;5.286;2022-10-03T01:26:36;12.30;99.90
13817;DHT22;6979;52.116;5.286;2022-10-03T01:29:10;12.30;99.90
13817;DHT22;6979;52.116;5.286;2022-10-03T01:32:00;12.30;99.90
13817;DHT22;6979;52.116;5.286;2022-10-03T01:34:33;12.30;99.90
13817;DHT22;6979;52.116;5.286;2022-10-03T01:37:07;12.30;99.90
13817;DHT22;6979;52.116;5.286;2022-10-03T01:39:41;12.20;99.90
13817;DHT22;6979;52.116;5.286;2022-10-03T01:42:15;12.20;99.90
13817;DHT22;6979;52.116;5.286;2022-10-03T01:45:05;12.20;99.90
13817;DHT22;6979;52.116;5.286;2022-10-03T01:47:44;12.10;99.90
13817;DHT22;6979;52.116;5.286;2022-10-03T01:50:21;12.10;99.90
13817;DHT22;6979;52.116;5.286;2022-10-03T01:52:55;12.10;99.90
13817;DHT22;6979;52.116;5.286;2022-10-03T01:55:37;12.10;99.90
13817;DHT22;6979;52.116;5.286;2022-10-03T01:58:10;12.10;99.90
13817;DHT22;6979;52.116;5.286;2022-10-03T02:00:48;12.10;99.90
13817;DHT22;6979;52.116;5.286;2022-10-03T02:03:21;12.00;99.90
13817;DHT22;6979;52.116;5.286;2022-10-03T02:05:56;12.00;99.90
13817;DHT22;6979;52.116;5.286;2022-10-03T02:08:34;12.00;99.90
13817;DHT22;6979;52.116;5.286;2022-10-03T02:11:10;11.90;99.90
13817;DHT22;6979;52.116;5.286;2022-10-03T02:13:50;11.90;99.90
13817;DHT22;6979;52.116;5.286;2022-10-03T02:16:29;11.90;99.90
13817;DHT22;6979;52.116;5.286;2022-10-03T02:19:00;11.90;99.90
13817;DHT22;6979;52.116;5.286;2022-10-03T02:21:33;11.90;99.90
13817;DHT22;6979;52.116;5.286;2022-10-03T02:24:30;11.90;99.90
13817;DHT22;6979;52.116;5.286;2022-10-03T02:27:29;11.80;99.90
13817;DHT22;6979;52.116;5.286;2022-10-03T02:30:12;11.80;99.90
13817;DHT22;6979;52.116;5.286;2022-10-03T02:33:07;11.80;99.90
13817;DHT22;6979;52.116;5.286;2022-10-03T02:36:01;11.70;99.90
13817;DHT22;6979;52.116;5.286;2022-10-03T02:38:56;11.70;99.90
13817;DHT22;6979;52.116;5.286;2022-10-03T02:41:41;11.70;99.90
13817;DHT22;6979;52.116;5.286;2022-10-03T02:44:35;11.70;99.90
13817;DHT22;6979;52.116;5.286;2022-10-03T02:53:51;11.60;99.90
13817;DHT22;6979;52.116;5.286;2022-10-03T02:56:49;11.60;99.90
13817;DHT22;6979;52.116;5.286;2022-10-03T03:06:11;11.50;99.90
13817;DHT22;6979;52.116;5.286;2022-10-03T03:09:06;11.50;99.90
13817;DHT22;6979;52.116;5.286;2022-10-03T03:15:05;11.40;99.90
13817;DHT22;6979;52.116;5.286;2022-10-03T03:17:46;11.40;99.90
13817;DHT22;6979;52.116;5.286;2022-10-03T03:20:31;11.40;99.90
13817;DHT22;6979;52.116;5.286;2022-10-03T03:29:20;11.30;99.90
13817;DHT22;6979;52.116;5.286;2022-10-03T03:31:55;11.30;99.90
13817;DHT22;6979;52.116;5.286;2022-10-03T03:34:32;11.30;99.90
13817;DHT22;6979;52.116;5.286;2022-10-03T03:37:07;11.30;99.90
13817;DHT22;6979;52.116;5.286;2022-10-03T03:39:50;11.20;99.90
13817;DHT22;6979;52.116;5.286;2022-10-03T03:42:38;11.20;99.90
13817;DHT22;6979;52.116;5.286;2022-10-03T03:45:20;11.20;99.90
13817;DHT22;6979;52.116;5.286;2022-10-03T03:48:04;11.20;99.90
13817;DHT22;6979;52.116;5.286;2022-10-03T03:50:45;11.20;99.90
13817;DHT22;6979;52.116;5.286;2022-10-03T03:53:44;11.20;99.90
13817;DHT22;6979;52.116;5.286;2022-10-03T03:56:25;11.10;99.90
13817;DHT22;6979;52.116;5.286;2022-10-03T03:59:00;11.10;99.90
13817;DHT22;6979;52.116;5.286;2022-10-03T04:01:50;11.10;99.90
13817;DHT22;6979;52.116;5.286;2022-10-03T04:04:33;11.10;99.90
13817;DHT22;6979;52.116;5.286;2022-10-03T04:07:15;11.10;99.90
13817;DHT22;6979;52.116;5.286;2022-10-03T04:10:00;11.10;99.90
13817;DHT22;6979;52.116;5.286;2022-10-03T04:12:41;11.10;99.90
13817;DHT22;6979;52.116;5.286;2022-10-03T04:15:29;11.10;99.90
13817;DHT22;6979;52.116;5.286;2022-10-03T04:18:15;11.10;99.90
13817;DHT22;6979;52.116;5.286;2022-10-03T04:21:21;11.00;99.90
13817;DHT22;6979;52.116;5.286;2022-10-03T04:24:22;11.00;99.90
13817;DHT22;6979;52.116;5.286;2022-10-03T04:27:03;11.00;99.90
13817;DHT22;6979;52.116;5.286;2022-10-03T04:29:42;11.00;99.90
13817;DHT22;6979;52.116;5.286;2022-10-03T04:32:21;11.00;99.90
13817;DHT22;6979;52.116;5.286;2022-10-03T04:35:10;11.00;99.90
13817;DHT22;6979;52.116;5.286;2022-10-03T04:37:43;11.00;99.90
13817;DHT22;6979;52.116;5.286;2022-10-03T04:40:29;11.00;99.90
13817;DHT22;6979;52.116;5.286;2022-10-03T04:43:06;11.00;99.90
13817;DHT22;6979;52.116;5.286;2022-10-03T04:45:47;10.90;99.90
13817;DHT22;6979;52.116;5.286;2022-10-03T04:48:26;10.90;99.90
13817;DHT22;6979;52.116;5.286;2022-10-03T04:51:05;10.90;99.90
13817;DHT22;6979;52.116;5.286;2022-10-03T04:53:44;10.90;99.90
13817;DHT22;6979;52.116;5.286;2022-10-03T04:59:32;10.90;99.90
13817;DHT22;6979;52.116;5.286;2022-10-03T05:02:04;10.90;99.90
13817;DHT22;6979;52.116;5.286;2022-10-03T05:04:41;10.90;99.90
13817;DHT22;6979;52.116;5.286;2022-10-03T05:07:15;10.90;99.90
13817;DHT22;6979;52.116;5.286;2022-10-03T05:09:51;10.90;99.90
13817;DHT22;6979;52.116;5.286;2022-10-03T05:12:26;10.90;99.90
13817;DHT22;6979;52.116;5.286;2022-10-03T05:15:19;10.90;99.90
13817;DHT22;6979;52.116;5.286;2022-10-03T05:17:57;10.90;99.90
13817;DHT22;6979;52.116;5.286;2022-10-03T05:20:50;10.90;99.90
13817;DHT22;6979;52.116;5.286;2022-10-03T05:23:26;10.90;99.90
13817;DHT22;6979;52.116;5.286;2022-10-03T05:26:03;10.90;99.90
13817;DHT22;6979;52.116;5.286;2022-10-03T05:28:38;10.90;99.90
13817;DHT22;6979;52.116;5.286;2022-10-03T05:31:24;10.90;99.90
13817;DHT22;6979;52.116;5.286;2022-10-03T05:34:00;10.90;99.90
13817;DHT22;6979;52.116;5.286;2022-10-03T05:36:32;10.90;99.90
13817;DHT22;6979;52.116;5.286;2022-10-03T05:39:24;10.90;99.90
13817;DHT22;6979;52.116;5.286;2022-10-03T05:41:53;10.90;99.90
13817;DHT22;6979;52.116;5.286;2022-10-03T05:44:28;10.90;99.90
13817;DHT22;6979;52.116;5.286;2022-10-03T05:47:03;10.90;99.90
13817;DHT22;6979;52.116;5.286;2022-10-03T05:50:15;10.90;99.90
13817;DHT22;6979;52.116;5.286;2022-10-03T05:53:22;10.90;99.90
13817;DHT22;6979;52.116;5.286;2022-10-03T05:56:01;10.90;99.90
13817;DHT22;6979;52.116;5.286;2022-10-03T05:58:42;10.90;99.90
13817;DHT22;6979;52.116;5.286;2022-10-03T06:01:31;10.90;99.90
13817;DHT22;6979;52.116;5.286;2022-10-03T06:04:18;10.90;99.90
13817;DHT22;6979;52.116;5.286;2022-10-03T06:06:57;10.90;99.90
13817;DHT22;6979;52.116;5.286;2022-10-03T06:12:47;10.90;99.90
13817;DHT22;6979;52.116;5.286;2022-10-03T06:15:46;11.00;99.90
13817;DHT22;6979;52.116;5.286;2022-10-03T06:18:49;11.00;99.90
13817;DHT22;6979;52.116;5.286;2022-10-03T06:21:59;11.00;99.90
13817;DHT22;6979;52.116;5.286;2022-10-03T06:43:17;11.60;99.90
13817;DHT22;6979;52.116;5.286;2022-10-03T06:46:31;11.70;99.90
13817;DHT22;6979;52.116;5.286;2022-10-03T06:49:27;11.80;99.90
13817;DHT22;6979;52.116;5.286;2022-10-03T06:52:12;11.90;99.90
13817;DHT22;6979;52.116;5.286;2022-10-03T06:55:12;12.10;99.90
13817;DHT22;6979;52.116;5.286;2022-10-03T06:58:11;12.20;99.90
13817;DHT22;6979;52.116;5.286;2022-10-03T07:00:53;12.40;99.90
13817;DHT22;6979;52.116;5.286;2022-10-03T07:06:34;12.60;99.90
13817;DHT22;6979;52.116;5.286;2022-10-03T07:09:33;12.80;99.90
13817;DHT22;6979;52.116;5.286;2022-10-03T07:12:26;12.90;99.90
13817;DHT22;6979;52.116;5.286;2022-10-03T07:15:13;13.00;99.90
13817;DHT22;6979;52.116;5.286;2022-10-03T07:17:58;13.20;99.90
13817;DHT22;6979;52.116;5.286;2022-10-03T07:20:55;13.30;99.90
13817;DHT22;6979;52.116;5.286;2022-10-03T07:23:40;13.40;99.90
13817;DHT22;6979;52.116;5.286;2022-10-03T07:26:38;13.50;99.90
13817;DHT22;6979;52.116;5.286;2022-10-03T07:32:16;13.80;99.90
13817;DHT22;6979;52.116;5.286;2022-10-03T07:41:32;14.20;99.90
13817;DHT22;6979;52.116;5.286;2022-10-03T07:50:34;14.50;99.90
13817;DHT22;6979;52.116;5.286;2022-10-03T07:53:18;14.60;99.90
13817;DHT22;6979;52.116;5.286;2022-10-03T07:55:54;14.70;99.90
13817;DHT22;6979;52.116;5.286;2022-10-03T07:58:41;14.80;99.90
13817;DHT22;6979;52.116;5.286;2022-10-03T08:01:30;14.90;99.90
13817;DHT22;6979;52.116;5.286;2022-10-03T08:07:10;15.10;99.90
13817;DHT22;6979;52.116;5.286;2022-10-03T08:10:07;15.20;99.90
13817;DHT22;6979;52.116;5.286;2022-10-03T08:12:59;15.20;99.90
13817;DHT22;6979;52.116;5.286;2022-10-03T08:15:47;15.30;99.90
13817;DHT22;6979;52.116;5.286;2022-10-03T08:18:55;15.40;99.90
13817;DHT22;6979;52.116;5.286;2022-10-03T08:21:30;15.50;99.90
13817;DHT22;6979;52.116;5.286;2022-10-03T08:24:23;15.50;99.90
13817;DHT22;6979;52.116;5.286;2022-10-03T08:27:06;15.60;99.90
13817;DHT22;6979;52.116;5.286;2022-10-03T08:30:03;15.60;99.90
13817;DHT22;6979;52.116;5.286;2022-10-03T08:35:32;15.70;99.90
13817;DHT22;6979;52.116;5.286;2022-10-03T08:44:47;15.90;99.90
13817;DHT22;6979;52.116;5.286;2022-10-03T08:50:35;16.20;99.90
13817;DHT22;6979;52.116;5.286;2022-10-03T08:53:30;16.30;99.90
13817;DHT22;6979;52.116;5.286;2022-10-03T08:56:03;16.40;99.90
13817;DHT22;6979;52.116;5.286;2022-10-03T08:59:03;16.50;99.90
13817;DHT22;6979;52.116;5.286;2022-10-03T09:01:48;16.60;99.90
13817;DHT22;6979;52.116;5.286;2022-10-03T09:07:43;16.70;99.90
13817;DHT22;6979;52.116;5.286;2022-10-03T09:10:36;16.80;99.90
13817;DHT22;6979;52.116;5.286;2022-10-03T09:13:56;16.90;99.90
13817;DHT22;6979;52.116;5.286;2022-10-03T09:16:40;17.00;99.90
13817;DHT22;6979;52.116;5.286;2022-10-03T09:19:41;17.10;99.90
13817;DHT22;6979;52.116;5.286;2022-10-03T09:22:22;17.20;99.90
13817;DHT22;6979;52.116;5.286;2022-10-03T09:25:22;17.30;99.90
13817;DHT22;6979;52.116;5.286;2022-10-03T09:30:53;17.50;99.90
13817;DHT22;6979;52.116;5.286;2022-10-03T09:45:50;18.00;99.90
13817;DHT22;6979;52.116;5.286;2022-10-03T09:48:31;18.10;99.90
13817;DHT22;6979;52.116;5.286;2022-10-03T09:51:23;18.30;99.90
13817;DHT22;6979;52.116;5.286;2022-10-03T10:00:44;19.20;99.90
13817;DHT22;6979;52.116;5.286;2022-10-03T10:06:34;19.70;99.90
13817;DHT22;6979;52.116;5.286;2022-10-03T10:09:26;19.90;99.90
13817;DHT22;6979;52.116;5.286;2022-10-03T10:27:27;20.20;99.90
13817;DHT22;6979;52.116;5.286;2022-10-03T10:30:09;20.30;99.90
13817;DHT22;6979;52.116;5.286;2022-10-03T10:33:04;20.40;99.90
13817;DHT22;6979;52.116;5.286;2022-10-03T10:36:11;20.50;99.90
13817;DHT22;6979;52.116;5.286;2022-10-03T10:39:27;20.60;99.90
13817;DHT22;6979;52.116;5.286;2022-10-03T10:42:29;20.70;99.90
13817;DHT22;6979;52.116;5.286;2022-10-03T10:45:42;20.80;99.90
13817;DHT22;6979;52.116;5.286;2022-10-03T10:55:19;21.00;99.90
13817;DHT22;6979;52.116;5.286;2022-10-03T11:01:07;21.10;99.90
13817;DHT22;6979;52.116;5.286;2022-10-03T11:04:17;21.10;99.90
13817;DHT22;6979;52.116;5.286;2022-10-03T11:07:15;21.30;99.90
13817;DHT22;6979;52.116;5.286;2022-10-03T11:10:07;21.40;99.90
13817;DHT22;6979;52.116;5.286;2022-10-03T11:19:25;21.60;99.90
13817;DHT22;6979;52.116;5.286;2022-10-03T11:25:31;21.60;99.90
13817;DHT22;6979;52.116;5.286;2022-10-03T11:28:30;21.70;99.90
13817;DHT22;6979;52.116;5.286;2022-10-03T11:31:32;21.80;99.90
13817;DHT22;6979;52.116;5.286;2022-10-03T11:34:35;21.90;99.90
13817;DHT22;6979;52.116;5.286;2022-10-03T11:37:17;22.10;99.90
13817;DHT22;6979;52.116;5.286;2022-10-03T11:39:53;22.40;99.90
13817;DHT22;6979;52.116;5.286;2022-10-03T11:42:38;22.60;99.90
13817;DHT22;6979;52.116;5.286;2022-10-03T11:45:21;22.90;99.90
13817;DHT22;6979;52.116;5.286;2022-10-03T11:47:56;23.20;99.90
13817;DHT22;6979;52.116;5.286;2022-10-03T11:50:42;23.40;99.90
13817;DHT22;6979;52.116;5.286;2022-10-03T11:53:20;23.70;99.90
13817;DHT22;6979;52.116;5.286;2022-10-03T11:56:01;23.80;99.90
13817;DHT22;6979;52.116;5.286;2022-10-03T11:58:34;23.90;99.90
13817;DHT22;6979;52.116;5.286;2022-10-03T12:01:31;23.90;99.90
13817;DHT22;6979;52.116;5.286;2022-10-03T12:04:09;24.00;99.90
13817;DHT22;6979;52.116;5.286;2022-10-03T12:06:56;24.10;99.90
13817;DHT22;6979;52.116;5.286;2022-10-03T12:09:59;24.20;99.90
13817;DHT22;6979;52.116;5.286;2022-10-03T12:12:33;24.20;99.90
13817;DHT22;6979;52.116;5.286;2022-10-03T12:15:04;24.20;99.90
13817;DHT22;6979;52.116;5.286;2022-10-03T12:17:42;24.20;99.90
13817;DHT22;6979;52.116;5.286;2022-10-03T12:20:17;24.20;99.90
13817;DHT22;6979;52.116;5.286;2022-10-03T12:22:51;24.20;99.90
13817;DHT22;6979;52.116;5.286;2022-10-03T12:25:22;24.20;99.90
13817;DHT22;6979;52.116;5.286;2022-10-03T12:27:59;24.30;99.90
13817;DHT22;6979;52.116;5.286;2022-10-03T12:30:33;24.30;99.90
13817;DHT22;6979;52.116;5.286;2022-10-03T12:33:19;24.40;99.90
13817;DHT22;6979;52.116;5.286;2022-10-03T12:35:53;24.40;99.90
13817;DHT22;6979;52.116;5.286;2022-10-03T12:38:35;24.50;99.90
13817;DHT22;6979;52.116;5.286;2022-10-03T12:41:19;24.50;99.90
13817;DHT22;6979;52.116;5.286;2022-10-03T12:43:58;24.40;99.90
13817;DHT22;6979;52.116;5.286;2022-10-03T12:46:35;24.40;99.90
13817;DHT22;6979;52.116;5.286;2022-10-03T12:49:10;24.30;99.90
13817;DHT22;6979;52.116;5.286;2022-10-03T12:51:50;24.30;99.90
13817;DHT22;6979;52.116;5.286;2022-10-03T12:54:36;24.30;99.90
13817;DHT22;6979;52.116;5.286;2022-10-03T12:57:37;24.20;99.90
13817;DHT22;6979;52.116;5.286;2022-10-03T13:00:15;24.20;99.90
13817;DHT22;6979;52.116;5.286;2022-10-03T13:03:11;24.30;99.90
13817;DHT22;6979;52.116;5.286;2022-10-03T13:06:05;24.30;99.90
13817;DHT22;6979;52.116;5.286;2022-10-03T13:08:48;24.20;99.90
13817;DHT22;6979;52.116;5.286;2022-10-03T13:11:30;24.20;99.90
13817;DHT22;6979;52.116;5.286;2022-10-03T13:14:09;24.20;99.90
13817;DHT22;6979;52.116;5.286;2022-10-03T13:16:48;24.10;99.90
13817;DHT22;6979;52.116;5.286;2022-10-03T13:19:28;24.10;99.90
13817;DHT22;6979;52.116;5.286;2022-10-03T13:22:02;24.10;99.90
13817;DHT22;6979;52.116;5.286;2022-10-03T13:24:35;24.20;99.90
13817;DHT22;6979;52.116;5.286;2022-10-03T13:27:22;24.20;99.90
13817;DHT22;6979;52.116;5.286;2022-10-03T13:30:02;24.20;99.90
13817;DHT22;6979;52.116;5.286;2022-10-03T13:32:32;24.30;99.90
13817;DHT22;6979;52.116;5.286;2022-10-03T13:35:19;24.20;99.90
13817;DHT22;6979;52.116;5.286;2022-10-03T13:38:16;24.20;99.90
13817;DHT22;6979;52.116;5.286;2022-10-03T13:40:53;24.00;99.90
13817;DHT22;6979;52.116;5.286;2022-10-03T13:43:25;23.90;99.90
13817;DHT22;6979;52.116;5.286;2022-10-03T13:46:03;23.70;99.90
13817;DHT22;6979;52.116;5.286;2022-10-03T13:48:33;23.60;99.90
13817;DHT22;6979;52.116;5.286;2022-10-03T13:51:04;23.50;99.90
13817;DHT22;6979;52.116;5.286;2022-10-03T13:53:51;23.30;99.90
13817;DHT22;6979;52.116;5.286;2022-10-03T13:56:32;23.20;99.90
13817;DHT22;6979;52.116;5.286;2022-10-03T13:59:13;23.10;99.90
13817;DHT22;6979;52.116;5.286;2022-10-03T14:01:49;23.10;99.90
13817;DHT22;6979;52.116;5.286;2022-10-03T14:04:46;23.00;99.90
13817;DHT22;6979;52.116;5.286;2022-10-03T14:07:26;22.90;99.90
13817;DHT22;6979;52.116;5.286;2022-10-03T14:10:07;22.90;99.90
13817;DHT22;6979;52.116;5.286;2022-10-03T14:12:53;22.90;99.90
13817;DHT22;6979;52.116;5.286;2022-10-03T14:15:32;22.80;99.90
13817;DHT22;6979;52.116;5.286;2022-10-03T14:18:13;22.80;99.90
13817;DHT22;6979;52.116;5.286;2022-10-03T14:21:22;22.70;99.90
13817;DHT22;6979;52.116;5.286;2022-10-03T14:23:59;22.60;99.90
13817;DHT22;6979;52.116;5.286;2022-10-03T14:26:33;22.50;99.90
13817;DHT22;6979;52.116;5.286;2022-10-03T14:29:05;22.40;99.90
13817;DHT22;6979;52.116;5.286;2022-10-03T14:31:39;22.30;99.90
13817;DHT22;6979;52.116;5.286;2022-10-03T14:34:16;22.30;99.90
13817;DHT22;6979;52.116;5.286;2022-10-03T14:36:51;22.20;99.90
13817;DHT22;6979;52.116;5.286;2022-10-03T14:39:27;22.20;99.90
13817;DHT22;6979;52.116;5.286;2022-10-03T14:42:32;22.20;99.90
13817;DHT22;6979;52.116;5.286;2022-10-03T14:45:08;22.10;99.90
13817;DHT22;6979;52.116;5.286;2022-10-03T14:47:39;22.10;99.90
13817;DHT22;6979;52.116;5.286;2022-10-03T14:50:13;22.00;99.90
13817;DHT22;6979;52.116;5.286;2022-10-03T14:52:43;22.00;99.90
13817;DHT22;6979;52.116;5.286;2022-10-03T14:55:14;22.00;99.90
13817;DHT22;6979;52.116;5.286;2022-10-03T14:57:45;22.00;99.90
13817;DHT22;6979;52.116;5.286;2022-10-03T15:00:24;21.90;99.90
13817;DHT22;6979;52.116;5.286;2022-10-03T15:02:53;21.90;99.90
13817;DHT22;6979;52.116;5.286;2022-10-03T15:05:31;21.80;99.90
13817;DHT22;6979;52.116;5.286;2022-10-03T15:07:58;21.90;99.90
13817;DHT22;6979;52.116;5.286;2022-10-03T15:10:27;21.90;99.90
13817;DHT22;6979;52.116;5.286;2022-10-03T15:12:57;21.90;99.90
13817;DHT22;6979;52.116;5.286;2022-10-03T15:15:29;21.90;99.90
13817;DHT22;6979;52.116;5.286;2022-10-03T15:18:00;22.00;99.90
13817;DHT22;6979;52.116;5.286;2022-10-03T15:20:33;22.00;99.90
13817;DHT22;6979;52.116;5.286;2022-10-03T15:23:03;22.10;99.90
13817;DHT22;6979;52.116;5.286;2022-10-03T15:25:34;22.20;99.90
13817;DHT22;6979;52.116;5.286;2022-10-03T15:28:04;22.30;99.90
13817;DHT22;6979;52.116;5.286;2022-10-03T15:30:34;22.30;99.90
13817;DHT22;6979;52.116;5.286;2022-10-03T15:33:09;22.30;99.90
13817;DHT22;6979;52.116;5.286;2022-10-03T15:35:39;22.30;99.90
13817;DHT22;6979;52.116;5.286;2022-10-03T15:38:11;22.30;99.90
13817;DHT22;6979;52.116;5.286;2022-10-03T15:40:45;22.20;99.90
13817;DHT22;6979;52.116;5.286;2022-10-03T15:43:27;22.10;99.90
13817;DHT22;6979;52.116;5.286;2022-10-03T15:45:59;22.00;99.90
13817;DHT22;6979;52.116;5.286;2022-10-03T15:48:29;21.90;99.90
13817;DHT22;6979;52.116;5.286;2022-10-03T15:50:56;21.90;99.90
13817;DHT22;6979;52.116;5.286;2022-10-03T15:53:27;21.80;99.90
13817;DHT22;6979;52.116;5.286;2022-10-03T15:56:06;21.80;99.90
13817;DHT22;6979;52.116;5.286;2022-10-03T15:58:38;21.70;99.90
13817;DHT22;6979;52.116;5.286;2022-10-03T16:01:14;21.70;99.90
13817;DHT22;6979;52.116;5.286;2022-10-03T16:03:45;21.60;99.90
13817;DHT22;6979;52.116;5.286;2022-10-03T16:06:18;21.60;99.90
13817;DHT22;6979;52.116;5.286;2022-10-03T16:08:54;21.60;99.90
13817;DHT22;6979;52.116;5.286;2022-10-03T16:11:24;21.50;99.90
13817;DHT22;6979;52.116;5.286;2022-10-03T16:14:02;21.50;99.90
13817;DHT22;6979;52.116;5.286;2022-10-03T16:16:35;21.50;99.90
13817;DHT22;6979;52.116;5.286;2022-10-03T16:19:21;21.50;99.90
13817;DHT22;6979;52.116;5.286;2022-10-03T16:21:55;21.50;99.90
13817;DHT22;6979;52.116;5.286;2022-10-03T16:24:31;21.50;99.90
13817;DHT22;6979;52.116;5.286;2022-10-03T16:27:07;21.50;99.90
13817;DHT22;6979;52.116;5.286;2022-10-03T16:29:36;21.50;99.90
13817;DHT22;6979;52.116;5.286;2022-10-03T16:32:06;21.50;99.90
13817;DHT22;6979;52.116;5.286;2022-10-03T16:34:36;21.50;99.90
13817;DHT22;6979;52.116;5.286;2022-10-03T16:37:16;21.50;99.90
13817;DHT22;6979;52.116;5.286;2022-10-03T16:39:51;21.50;99.90
13817;DHT22;6979;52.116;5.286;2022-10-03T16:42:20;21.50;99.90
13817;DHT22;6979;52.116;5.286;2022-10-03T16:44:51;21.50;99.90
13817;DHT22;6979;52.116;5.286;2022-10-03T16:47:28;21.40;99.90
13817;DHT22;6979;52.116;5.286;2022-10-03T16:49:59;21.40;99.90
13817;DHT22;6979;52.116;5.286;2022-10-03T16:52:45;21.40;99.90
13817;DHT22;6979;52.116;5.286;2022-10-03T16:55:15;21.40;99.90
13817;DHT22;6979;52.116;5.286;2022-10-03T16:57:48;21.30;99.90
13817;DHT22;6979;52.116;5.286;2022-10-03T17:00:20;21.20;99.90
13817;DHT22;6979;52.116;5.286;2022-10-03T17:02:48;21.10;99.90
13817;DHT22;6979;52.116;5.286;2022-10-03T17:05:18;21.10;99.90
13817;DHT22;6979;52.116;5.286;2022-10-03T17:07:47;21.00;99.90
13817;DHT22;6979;52.116;5.286;2022-10-03T17:10:26;20.90;99.90
13817;DHT22;6979;52.116;5.286;2022-10-03T17:12:55;20.90;99.90
13817;DHT22;6979;52.116;5.286;2022-10-03T17:15:28;20.80;99.90
13817;DHT22;6979;52.116;5.286;2022-10-03T17:17:57;20.80;99.90
13817;DHT22;6979;52.116;5.286;2022-10-03T17:20:38;20.70;99.90
13817;DHT22;6979;52.116;5.286;2022-10-03T17:23:12;20.60;99.90
13817;DHT22;6979;52.116;5.286;2022-10-03T17:25:48;20.60;99.90
13817;DHT22;6979;52.116;5.286;2022-10-03T17:28:28;20.50;99.90
13817;DHT22;6979;52.116;5.286;2022-10-03T17:30:59;20.50;99.90
13817;DHT22;6979;52.116;5.286;2022-10-03T17:33:35;20.40;99.90
13817;DHT22;6979;52.116;5.286;2022-10-03T17:36:37;20.30;99.90
13817;DHT22;6979;52.116;5.286;2022-10-03T17:39:09;20.30;99.90
13817;DHT22;6979;52.116;5.286;2022-10-03T17:41:49;20.20;99.90
13817;DHT22;6979;52.116;5.286;2022-10-03T17:44:25;20.10;99.90
13817;DHT22;6979;52.116;5.286;2022-10-03T17:46:59;20.10;99.90
13817;DHT22;6979;52.116;5.286;2022-10-03T17:49:41;20.00;99.90
13817;DHT22;6979;52.116;5.286;2022-10-03T17:52:16;19.90;99.90
13817;DHT22;6979;52.116;5.286;2022-10-03T17:54:46;19.90;99.90
13817;DHT22;6979;52.116;5.286;2022-10-03T17:57:19;19.90;99.90
13817;DHT22;6979;52.116;5.286;2022-10-03T17:59:53;19.80;99.90
13817;DHT22;6979;52.116;5.286;2022-10-03T18:02:28;19.80;99.90
13817;DHT22;6979;52.116;5.286;2022-10-03T18:05:05;19.70;99.90
13817;DHT22;6979;52.116;5.286;2022-10-03T18:07:35;19.60;99.90
13817;DHT22;6979;52.116;5.286;2022-10-03T18:10:03;19.60;99.90
13817;DHT22;6979;52.116;5.286;2022-10-03T18:12:33;19.60;99.90
13817;DHT22;6979;52.116;5.286;2022-10-03T18:15:23;19.50;99.90
13817;DHT22;6979;52.116;5.286;2022-10-03T18:18:01;19.40;99.90
13817;DHT22;6979;52.116;5.286;2022-10-03T18:20:40;19.30;99.90
13817;DHT22;6979;52.116;5.286;2022-10-03T18:23:27;19.30;99.90
13817;DHT22;6979;52.116;5.286;2022-10-03T18:26:01;19.20;99.90
13817;DHT22;6979;52.116;5.286;2022-10-03T18:28:32;19.10;99.90
13817;DHT22;6979;52.116;5.286;2022-10-03T18:31:04;19.10;99.90
13817;DHT22;6979;52.116;5.286;2022-10-03T18:33:34;19.00;99.90
13817;DHT22;6979;52.116;5.286;2022-10-03T18:36:10;19.00;99.90
13817;DHT22;6979;52.116;5.286;2022-10-03T18:38:44;19.00;99.90
13817;DHT22;6979;52.116;5.286;2022-10-03T18:41:14;18.90;99.90
13817;DHT22;6979;52.116;5.286;2022-10-03T18:43:44;18.80;99.90
13817;DHT22;6979;52.116;5.286;2022-10-03T18:46:14;18.70;99.90
13817;DHT22;6979;52.116;5.286;2022-10-03T18:49:01;18.70;99.90
13817;DHT22;6979;52.116;5.286;2022-10-03T18:51:34;18.60;99.90
13817;DHT22;6979;52.116;5.286;2022-10-03T18:54:13;18.50;99.90
13817;DHT22;6979;52.116;5.286;2022-10-03T18:56:45;18.50;99.90
13817;DHT22;6979;52.116;5.286;2022-10-03T18:59:20;18.40;99.90
13817;DHT22;6979;52.116;5.286;2022-10-03T19:01:51;18.40;99.90
13817;DHT22;6979;52.116;5.286;2022-10-03T19:04:34;18.30;99.90
13817;DHT22;6979;52.116;5.286;2022-10-03T19:07:10;18.30;99.90
13817;DHT22;6979;52.116;5.286;2022-10-03T19:10:04;18.30;99.90
13817;DHT22;6979;52.116;5.286;2022-10-03T19:12:34;18.20;99.90
13817;DHT22;6979;52.116;5.286;2022-10-03T19:15:15;18.20;99.90
13817;DHT22;6979;52.116;5.286;2022-10-03T19:17:50;18.20;99.90
13817;DHT22;6979;52.116;5.286;2022-10-03T19:20:24;18.10;99.90
13817;DHT22;6979;52.116;5.286;2022-10-03T19:22:59;18.10;99.90
13817;DHT22;6979;52.116;5.286;2022-10-03T19:25:28;18.10;99.90
13817;DHT22;6979;52.116;5.286;2022-10-03T19:27:58;18.10;99.90
13817;DHT22;6979;52.116;5.286;2022-10-03T19:30:27;18.00;99.90
13817;DHT22;6979;52.116;5.286;2022-10-03T19:32:58;18.00;99.90
13817;DHT22;6979;52.116;5.286;2022-10-03T19:35:26;18.00;99.90
13817;DHT22;6979;52.116;5.286;2022-10-03T19:37:56;18.00;99.90
13817;DHT22;6979;52.116;5.286;2022-10-03T19:40:40;18.00;99.90
13817;DHT22;6979;52.116;5.286;2022-10-03T19:43:35;18.00;99.90
13817;DHT22;6979;52.116;5.286;2022-10-03T19:46:29;18.00;99.90